地図

経路データ

SID SEASON NUMBER BASIN SUBBASIN NAME ISO_TIME NATURE LAT LON WMO_WIND WMO_PRES WMO_AGENCY TRACK_TYPE DIST2LAND LANDFALL IFLAG USA_AGENCY USA_ATCF_ID USA_LAT USA_LON USA_RECORD USA_STATUS USA_WIND USA_PRES USA_SSHS USA_R34_NE USA_R34_SE USA_R34_SW USA_R34_NW USA_R50_NE USA_R50_SE USA_R50_SW USA_R50_NW USA_R64_NE USA_R64_SE USA_R64_SW USA_R64_NW USA_POCI USA_ROCI USA_RMW USA_EYE TOKYO_LAT TOKYO_LON TOKYO_GRADE TOKYO_WIND TOKYO_PRES TOKYO_R50_DIR TOKYO_R50_LONG TOKYO_R50_SHORT TOKYO_R30_DIR TOKYO_R30_LONG TOKYO_R30_SHORT TOKYO_LAND CMA_LAT CMA_LON CMA_CAT CMA_WIND CMA_PRES HKO_LAT HKO_LON HKO_CAT HKO_WIND HKO_PRES NEWDELHI_LAT NEWDELHI_LON NEWDELHI_GRADE NEWDELHI_WIND NEWDELHI_PRES NEWDELHI_CI NEWDELHI_DP NEWDELHI_POCI REUNION_LAT REUNION_LON REUNION_TYPE REUNION_WIND REUNION_PRES REUNION_TNUM REUNION_CI REUNION_RMW REUNION_R34_NE REUNION_R34_SE REUNION_R34_SW REUNION_R34_NW REUNION_R50_NE REUNION_R50_SE REUNION_R50_SW REUNION_R50_NW REUNION_R64_NE REUNION_R64_SE REUNION_R64_SW REUNION_R64_NW BOM_LAT BOM_LON BOM_TYPE BOM_WIND BOM_PRES BOM_TNUM BOM_CI BOM_RMW BOM_R34_NE BOM_R34_SE BOM_R34_SW BOM_R34_NW BOM_R50_NE BOM_R50_SE BOM_R50_SW BOM_R50_NW BOM_R64_NE BOM_R64_SE BOM_R64_SW BOM_R64_NW BOM_ROCI BOM_POCI BOM_EYE BOM_POS_METHOD BOM_PRES_METHOD NADI_LAT NADI_LON NADI_CAT NADI_WIND NADI_PRES WELLINGTON_LAT WELLINGTON_LON WELLINGTON_WIND WELLINGTON_PRES DS824_LAT DS824_LON DS824_STAGE DS824_WIND DS824_PRES TD9636_LAT TD9636_LON TD9636_STAGE TD9636_WIND TD9636_PRES TD9635_LAT TD9635_LON TD9635_WIND TD9635_PRES TD9635_ROCI NEUMANN_LAT NEUMANN_LON NEUMANN_CLASS NEUMANN_WIND NEUMANN_PRES MLC_LAT MLC_LON MLC_CLASS MLC_WIND MLC_PRES USA_GUST BOM_GUST BOM_GUST_PER REUNION_GUST REUNION_GUST_PER USA_SEAHGT USA_SEARAD_NE USA_SEARAD_SE USA_SEARAD_SW USA_SEARAD_NW STORM_SPEED STORM_DIR
1996232N17280 1996 68 NA CS DOLLY 1996-08-19 06:00:00 TS 17.3000 -80.2000 25 1009 hurdat_atl main 215 215 O_____________ hurdat_atl AL041996 17.3000 -80.2000 TD 25 1009 -1 16 289
1996232N17280 1996 68 NA CS DOLLY 1996-08-19 09:00:00 TS 17.5608 -80.9720 main 283 283 P_____________ AL041996 17.5608 -80.9720 TD 27 1008 -1 15 289
1996232N17280 1996 68 NA CS DOLLY 1996-08-19 12:00:00 TS 17.8000 -81.7000 30 1008 hurdat_atl main 333 322 O_____________ hurdat_atl AL041996 17.8000 -81.7000 TD 30 1008 -1 14 289
1996232N17280 1996 68 NA CS DOLLY 1996-08-19 15:00:00 TS 18.0070 -82.3578 main 318 302 P_____________ AL041996 18.0070 -82.3578 TD 37 1007 0 13 288
1996232N17280 1996 68 NA CS DOLLY 1996-08-19 18:00:00 TS 18.2000 -83.0000 45 1006 hurdat_atl main 302 292 O_____________ hurdat_atl AL041996 18.2000 -83.0000 TS 45 1006 0 13 288
1996232N17280 1996 68 NA CS DOLLY 1996-08-19 21:00:00 TS 18.4149 -83.6999 main 297 295 P_____________ AL041996 18.4149 -83.6999 TS 45 1006 0 14 287
1996232N17280 1996 68 NA CS DOLLY 1996-08-20 00:00:00 TS 18.6000 -84.4000 45 1006 hurdat_atl main 303 267 O_____________ hurdat_atl AL041996 18.6000 -84.4000 TS 45 1006 0 13 283
1996232N17280 1996 68 NA CS DOLLY 1996-08-20 03:00:00 TS 18.7148 -85.0652 main 257 194 P_____________ AL041996 18.7148 -85.0652 TS 50 1005 0 12 279
1996232N17280 1996 68 NA CS DOLLY 1996-08-20 06:00:00 TS 18.8000 -85.7000 55 1005 hurdat_atl main 194 130 O_____________ hurdat_atl AL041996 18.8000 -85.7000 TS 55 1005 0 12 279
1996232N17280 1996 68 NA CS DOLLY 1996-08-20 09:00:00 TS 18.9071 -86.3331 main 130 66 P_____________ AL041996 18.9071 -86.3331 TS 57 1003 0 12 280
1996232N17280 1996 68 NA CS DOLLY 1996-08-20 12:00:00 TS 19.0000 -86.9000 60 1002 hurdat_atl main 66 31 O_____________ hurdat_atl AL041996 19.0000 -86.9000 TS 60 1002 0 9 270
1996232N17280 1996 68 NA CS DOLLY 1996-08-20 15:00:00 TS 18.9056 -87.3059 main 31 0 P_____________ AL041996 18.9056 -87.3059 TS 62 1000 0 8 278
1996232N17280 1996 68 NA NA DOLLY 1996-08-20 17:30:00 TS 19.1000 -87.7000 65 999 hurdat_atl main 0 0 O_____________ hurdat_atl AL041996 19.1000 -87.7000 L HU 65 999 1 11 302
1996232N17280 1996 68 NA NA DOLLY 1996-08-20 18:00:00 TS 19.2000 -87.8000 65 999 hurdat_atl main 0 0 O_____________ hurdat_atl AL041996 19.2000 -87.8000 HU 65 999 1 11 295
1996232N17280 1996 68 NA NA DOLLY 1996-08-20 21:00:00 TS 19.3702 -88.3004 main 0 0 P_____________ AL041996 19.3702 -88.3004 HU 52 1000 0 9 270
1996232N17280 1996 68 NA NA DOLLY 1996-08-21 00:00:00 TS 19.2000 -88.7000 40 1001 hurdat_atl main 0 0 O_____________ hurdat_atl AL041996 19.2000 -88.7000 TS 40 1001 0 8 261
1996232N17280 1996 68 NA NA DOLLY 1996-08-21 03:00:00 TS 19.2425 -89.1225 main 0 0 P_____________ AL041996 19.2425 -89.1225 TS 37 1001 0 8 278
1996232N17280 1996 68 NA NA DOLLY 1996-08-21 06:00:00 TS 19.3000 -89.5000 35 1002 hurdat_atl main 0 0 O_____________ hurdat_atl AL041996 19.3000 -89.5000 TS 35 1002 0 7 279
1996232N17280 1996 68 NA NA DOLLY 1996-08-21 09:00:00 TS 19.3499 -89.8150 main 0 0 P_____________ AL041996 19.3499 -89.8150 TS 32 1002 -1 6 280
1996232N17280 1996 68 NA NA DOLLY 1996-08-21 12:00:00 TS 19.4000 -90.1000 30 1002 hurdat_atl main 0 0 O_____________ hurdat_atl AL041996 19.4000 -90.1000 TD 30 1002 -1 6 280
1996232N17280 1996 68 NA NA DOLLY 1996-08-21 15:00:00 TS 19.4424 -90.3926 main 0 0 P_____________ AL041996 19.4424 -90.3926 TD 30 1002 -1 6 280
1996232N17280 1996 68 NA NA DOLLY 1996-08-21 18:00:00 TS 19.5000 -90.7000 30 1002 hurdat_atl main 0 0 O_____________ hurdat_atl AL041996 19.5000 -90.7000 TD 30 1002 -1 6 283
1996232N17280 1996 68 NA GM DOLLY 1996-08-21 21:00:00 TS 19.5772 -91.0052 main 31 31 P_____________ AL041996 19.5772 -91.0052 TD 32 1002 -1 7 287
1996232N17280 1996 68 NA GM DOLLY 1996-08-22 00:00:00 TS 19.7000 -91.4000 35 1002 hurdat_atl main 69 69 O_____________ hurdat_atl AL041996 19.7000 -91.4000 TS 35 1002 0 10 289
1996232N17280 1996 68 NA GM DOLLY 1996-08-22 03:00:00 TS 19.8927 -91.9698 main 123 123 P_____________ AL041996 19.8927 -91.9698 TS 40 1002 0 12 290
1996232N17280 1996 68 NA GM DOLLY 1996-08-22 06:00:00 TS 20.1000 -92.6000 45 1002 hurdat_atl main 167 167 O_____________ hurdat_atl AL041996 20.1000 -92.6000 TS 45 1002 0 12 288
1996232N17280 1996 68 NA GM DOLLY 1996-08-22 09:00:00 TS 20.2651 -93.2025 main 197 197 P_____________ AL041996 20.2651 -93.2025 TS 45 1000 0 11 286
1996232N17280 1996 68 NA GM DOLLY 1996-08-22 12:00:00 TS 20.4000 -93.7000 45 999 hurdat_atl main 226 226 O_____________ hurdat_atl AL041996 20.4000 -93.7000 TS 45 999 0 8 288
1996232N17280 1996 68 NA GM DOLLY 1996-08-22 15:00:00 TS 20.4996 -93.9803 main 236 231 P_____________ AL041996 20.4996 -93.9803 TS 47 996 0 5 293
1996232N17280 1996 68 NA GM DOLLY 1996-08-22 18:00:00 TS 20.6000 -94.2000 50 993 hurdat_atl main 236 217 O_____________ hurdat_atl AL041996 20.6000 -94.2000 TS 50 993 0 5 296
1996232N17280 1996 68 NA GM DOLLY 1996-08-22 21:00:00 TS 20.7347 -94.4977 main 217 192 P_____________ AL041996 20.7347 -94.4977 TS 52 991 0 7 295
1996232N17280 1996 68 NA GM DOLLY 1996-08-23 00:00:00 TS 20.9000 -94.9000 55 990 hurdat_atl main 192 167 O_____________ hurdat_atl AL041996 20.9000 -94.9000 TS 55 990 0 9 293
1996232N17280 1996 68 NA GM DOLLY 1996-08-23 03:00:00 TS 21.0998 -95.4325 main 167 128 P_____________ AL041996 21.0998 -95.4325 TS 57 990 0 12 290
1996232N17280 1996 68 NA GM DOLLY 1996-08-23 06:00:00 TS 21.3000 -96.1000 60 991 hurdat_atl main 128 52 O_____________ hurdat_atl AL041996 21.3000 -96.1000 TS 60 991 0 14 286
1996232N17280 1996 68 NA GM DOLLY 1996-08-23 09:00:00 TS 21.4800 -96.8698 main 42 0 P_____________ AL041996 21.4800 -96.8698 TS 65 990 1 15 281
1996232N17280 1996 68 NA NA DOLLY 1996-08-23 12:00:00 TS 21.6000 -97.7000 70 989 hurdat_atl main 0 0 O_____________ hurdat_atl AL041996 21.6000 -97.7000 L HU 70 989 1 15 275
1996232N17280 1996 68 NA NA DOLLY 1996-08-23 15:00:00 TS 21.6221 -98.5004 main 0 0 P_____________ AL041996 21.6221 -98.5004 HU 57 993 0 15 270
1996232N17280 1996 68 NA NA DOLLY 1996-08-23 18:00:00 TS 21.6000 -99.3000 45 997 hurdat_atl main 0 0 O_____________ hurdat_atl AL041996 21.6000 -99.3000 TS 45 997 0 15 269
1996232N17280 1996 68 NA NA DOLLY 1996-08-23 21:00:00 TS 21.5996 -100.100 main 0 0 P_____________ AL041996 21.5996 -100.100 TS 37 999 0 15 270
1996232N17280 1996 68 NA NA DOLLY 1996-08-24 00:00:00 TS 21.6000 -100.900 30 1002 hurdat_atl main 0 0 O_____________ hurdat_atl AL041996 21.6000 -100.900 TD 30 1002 -1 15 270
1996232N17280 1996 68 NA NA DOLLY 1996-08-24 03:00:00 TS 21.5922 -101.708 main 0 0 P_____________ AL041996 21.5922 -101.708 TD 27 1003 -1 15 270
1996232N17280 1996 68 NA NA DOLLY 1996-08-24 06:00:00 TS 21.6000 -102.500 25 1004 hurdat_atl main 0 0 O_____________ hurdat_atl AL041996 21.6000 -102.500 TD 25 1004 -1 14 272
1996232N17280 1996 68 NA NA DOLLY 1996-08-24 09:00:00 TS 21.6493 -103.242 main 0 0 P_____________ AL041996 21.6493 -103.242 TD 22 1004 -1 14 274
1996232N17280 1996 68 NA NA DOLLY 1996-08-24 12:00:00 TS 21.7000 -104.000 20 1005 hurdat_atl main 0 0 O_____________ hurdat_atl AL041996 21.7000 -104.000 TD 20 1005 -1 15 272
1996232N17280 1996 68 NA NA DOLLY 1996-08-24 15:00:00 TS 21.6999 -104.843 main 0 0 P_____________ AL041996 21.6999 -104.843 TD 20 1005 -1 16 270
1996232N17280 1996 68 EP MM DOLLY 1996-08-24 18:00:00 TS 21.7000 -105.700 20 1005 hurdat_atl main 23 23 O_____________ hurdat_atl AL041996 21.7000 -105.700 TD 20 1005 -1 16 271
1996232N17280 1996 68 EP MM DOLLY 1996-08-24 21:00:00 TS 21.7380 -106.515 main 98 98 P_____________ AL041996 21.7380 -106.515 TD 20 1005 -1 15 274
1996232N17280 1996 68 EP MM DOLLY 1996-08-25 00:00:00 TS 21.8000 -107.300 20 1005 hurdat_atl main 173 O_____________ hurdat_atl AL041996 21.8000 -107.300 TD 20 1005 -1 15 275

IBTrACS Databaseについて

本データベースは、米国NOAAが公開する1842年以降の世界の熱帯低気圧のベストトラックデータアーカイブInternational Best Track Archive for Climate Stewardship (IBTrACS)を、ウェブで閲覧しやすい形式に変換したものです。

最終更新日:2021-11-26